Time;durP1;ratioP1;P1;durP2;ratioP2;P2;SDS_P1;SDS_P2;PMS_P1;PMS_P2;Temp;Humidity;BMP_temperature;BMP_pressure;BME280_temperature;BME280_humidity;BME280_pressure;Samples;Min_cycle;Max_cycle;Signal;HPM_P1;HPM_P2
2022/04/03 00:00:24;;;;;;;1.33;1.23;;;2.00;99.90;0.90;98290.00;;;;5034085;28;20233;-72
2022/04/03 00:02:51;;;;;;;2.73;1.27;;;1.90;99.90;1.10;98292.00;;;;5034151;28;20198;-72
2022/04/03 00:05:19;;;;;;;0.97;0.97;;;1.90;99.90;1.10;98297.00;;;;5016634;28;20664;-73
2022/04/03 00:07:46;;;;;;;2.17;1.77;;;1.90;99.90;1.00;98295.00;;;;5016078;28;20578;-73
2022/04/03 00:10:14;;;;;;;1.57;1.57;;;1.80;99.80;0.90;98302.00;;;;5016512;28;20239;-72
2022/04/03 00:12:46;;;;;;;2.53;1.50;;;1.80;99.90;0.90;98299.00;;;;5016520;28;20682;-72
2022/04/03 00:15:13;;;;;;;1.23;1.23;;;1.80;99.90;0.90;98299.00;;;;5033609;28;20239;-72
2022/04/03 00:17:40;;;;;;;1.20;1.20;;;1.90;99.90;1.00;98257.00;;;;5034004;28;20205;-72
2022/04/03 00:20:10;;;;;;;1.47;1.43;;;1.90;99.90;1.00;98293.00;;;;5033672;28;20280;-72
2022/04/03 00:22:37;;;;;;;1.90;1.47;;;1.80;99.50;1.10;98266.00;;;;5016241;28;20806;-72
2022/04/03 00:25:06;;;;;;;1.67;1.57;;;1.80;99.80;0.90;98302.00;;;;5016241;28;20262;-72
2022/04/03 00:27:33;;;;;;;1.03;1.03;;;1.80;99.90;1.10;98300.00;;;;5016286;28;20323;-72
2022/04/03 00:29:59;;;;;;;1.00;1.00;;;1.90;99.90;1.00;98300.00;;;;5033623;28;20258;-72
2022/04/03 00:32:26;;;;;;;1.50;1.47;;;1.90;99.90;0.90;98300.00;;;;5017012;28;20330;-72
2022/04/03 00:34:52;;;;;;;0.90;0.90;;;1.80;99.80;1.00;98293.00;;;;5034509;28;20295;-72
2022/04/03 00:37:19;;;;;;;1.90;1.80;;;1.80;99.90;1.00;98300.00;;;;5038412;28;20275;-73
2022/04/03 00:39:49;;;;;;;1.13;1.13;;;1.90;99.90;1.00;98263.00;;;;5033957;28;20640;-72
2022/04/03 00:42:19;;;;;;;1.57;1.40;;;1.90;99.90;0.80;98302.00;;;;5034057;28;20219;-72
2022/04/03 00:44:46;;;;;;;1.83;1.73;;;1.80;99.60;0.60;98301.00;;;;5016092;28;20629;-72
2022/04/03 00:47:14;;;;;;;1.53;1.53;;;1.70;99.60;0.50;98303.00;;;;5033636;28;20201;-72
2022/04/03 00:49:41;;;;;;;1.10;1.10;;;1.50;99.90;0.40;98311.00;;;;5033532;28;20251;-72
2022/04/03 00:52:08;;;;;;;1.20;1.20;;;1.40;99.90;0.50;98300.00;;;;5015945;28;20208;-72
2022/04/03 00:54:35;;;;;;;1.57;1.47;;;1.50;99.90;0.60;98249.00;;;;5033280;28;20735;-72
2022/04/03 00:57:06;;;;;;;1.13;1.03;;;1.50;99.90;0.70;98279.00;;;;5033337;28;20208;-72
2022/04/03 00:59:34;;;;;;;7.20;2.67;;;1.50;99.90;0.80;98314.00;;;;5033203;28;20224;-72
2022/04/03 01:02:02;;;;;;;2.03;1.93;;;1.70;99.90;0.80;98294.00;;;;5033160;28;20266;-72
2022/04/03 01:04:31;;;;;;;1.87;1.77;;;1.60;99.90;0.80;98303.00;;;;5033126;28;20204;-72
2022/04/03 01:06:58;;;;;;;1.27;1.27;;;1.60;99.90;0.80;98299.00;;;;5033085;28;20238;-72
2022/04/03 01:09:27;;;;;;;1.50;1.40;;;1.70;99.90;0.80;98272.00;;;;5033067;28;20208;-72
2022/04/03 01:11:54;;;;;;;1.43;1.33;;;1.70;99.90;0.80;98313.00;;;;5033091;28;20217;-72
2022/04/03 01:14:32;;;;;;;2.20;1.57;;;1.70;99.90;0.70;98306.00;;;;5033084;28;20240;-72
2022/04/03 01:16:59;;;;;;;1.27;1.13;;;1.70;99.90;0.80;98310.00;;;;5033100;28;20234;-72
2022/04/03 01:19:26;;;;;;;2.13;2.03;;;1.70;99.90;0.60;98266.00;;;;5016470;28;20229;-72
2022/04/03 01:21:52;;;;;;;2.33;2.23;;;1.60;99.90;0.80;98303.00;;;;5019221;28;20656;-72
2022/04/03 01:24:20;;;;;;;1.20;1.20;;;1.70;99.90;0.90;98291.00;;;;5036438;28;20193;-71
2022/04/03 01:26:48;;;;;;;1.83;1.73;;;1.80;99.90;0.80;98308.00;;;;5018989;28;20235;-72
2022/04/03 01:29:16;;;;;;;1.27;1.27;;;1.80;99.90;0.90;98322.00;;;;5018905;28;20217;-72
2022/04/03 01:31:42;;;;;;;1.47;1.47;;;1.80;99.90;0.90;98316.00;;;;5036271;28;20208;-71
2022/04/03 01:34:11;;;;;;;2.03;1.93;;;1.80;99.90;1.00;98311.00;;;;5036417;28;20221;-71
2022/04/03 01:36:38;;;;;;;5.20;3.57;;;1.80;99.90;1.00;98319.00;;;;5036474;28;20616;-71
2022/04/03 01:39:10;;;;;;;1.53;1.50;;;1.80;99.90;1.10;98297.00;;;;5036055;28;20701;-71
2022/04/03 01:41:37;;;;;;;2.43;2.07;;;1.90;99.90;1.00;98311.00;;;;5036223;28;20215;-72
2022/04/03 01:44:08;;;;;;;2.43;2.30;;;1.80;99.90;1.00;98310.00;;;;5018649;28;20263;-71
2022/04/03 01:46:34;;;;;;;1.57;1.47;;;1.80;99.90;1.00;98319.00;;;;5018833;28;20287;-72
2022/04/03 01:49:05;;;;;;;1.10;1.10;;;1.80;99.90;1.10;98311.00;;;;5036046;28;20209;-71
2022/04/03 01:51:32;;;;;;;2.33;1.70;;;1.90;99.90;1.00;98322.00;;;;5018444;28;20331;-71
2022/04/03 01:53:59;;;;;;;1.63;1.53;;;1.90;99.30;1.10;98321.00;;;;5035998;28;20197;-72
2022/04/03 01:56:26;;;;;;;1.50;1.40;;;1.90;99.30;1.00;98303.00;;;;5035861;28;20233;-72
2022/04/03 01:58:52;;;;;;;1.30;1.30;;;1.80;99.00;0.90;98319.00;;;;5018674;28;20208;-71
2022/04/03 02:01:20;;;;;;;1.73;1.40;;;1.70;99.00;1.00;98318.00;;;;5018418;28;20224;-71
2022/04/03 02:03:49;;;;;;;1.57;1.47;;;1.80;99.70;0.90;98317.00;;;;5018450;28;20636;-71
2022/04/03 02:06:16;;;;;;;2.43;2.20;;;1.90;99.00;1.00;98254.00;;;;5018321;28;20216;-71
2022/04/03 02:08:42;;;;;;;1.37;1.27;;;1.80;99.00;0.90;98275.00;;;;5018286;28;20231;-72
2022/04/03 02:11:09;;;;;;;1.63;1.53;;;1.80;99.90;1.00;98323.00;;;;5035811;28;20715;-71
2022/04/03 02:13:36;;;;;;;1.37;1.37;;;1.80;99.40;1.00;98326.00;;;;5035582;28;20616;-71
2022/04/03 02:16:03;;;;;;;2.47;2.03;;;1.90;99.60;1.00;98321.00;;;;5035619;28;20415;-71
2022/04/03 02:18:32;;;;;;;1.37;1.37;;;1.90;99.40;1.00;98323.00;;;;5035402;28;20220;-71
2022/04/03 02:20:59;;;;;;;2.10;2.00;;;1.90;99.50;0.90;98325.00;;;;5018176;28;20204;-71
2022/04/03 02:23:25;;;;;;;1.57;1.47;;;1.80;99.30;1.00;98301.00;;;;5035613;28;20188;-71
2022/04/03 02:25:52;;;;;;;1.37;1.37;;;1.80;99.10;1.00;98299.00;;;;5035342;28;20227;-72
2022/04/03 02:28:19;;;;;;;1.53;1.43;;;1.80;98.90;0.40;98301.00;;;;5035350;28;20228;-71
2022/04/03 02:30:45;;;;;;;1.77;1.67;;;1.80;99.00;1.10;98286.00;;;;5034863;28;20231;-71
2022/04/03 02:33:12;;;;;;;1.57;1.50;;;1.90;99.60;0.90;98326.00;;;;5018198;28;20634;-71
2022/04/03 02:35:39;;;;;;;1.67;1.57;;;1.90;98.90;1.00;98329.00;;;;5018458;28;20302;-71
2022/04/03 02:38:07;;;;;;;1.87;1.77;;;1.90;98.90;1.10;98310.00;;;;5018161;28;20298;-72
2022/04/03 02:40:34;;;;;;;1.10;1.10;;;1.90;98.50;1.10;98331.00;;;;5018084;28;20223;-72
2022/04/03 02:43:02;;;;;;;2.07;1.97;;;1.90;98.50;1.00;98336.00;;;;5018395;28;20300;-72
2022/04/03 02:45:28;;;;;;;1.07;1.07;;;1.90;98.90;1.10;98332.00;;;;5038890;28;20239;-71
2022/04/03 02:47:56;;;;;;;1.20;1.20;;;1.90;99.30;0.70;98336.00;;;;5021750;28;20228;-72
2022/04/03 02:50:26;;;;;;;1.07;1.07;;;1.80;98.40;0.90;98325.00;;;;5037122;28;20211;-72
2022/04/03 02:52:55;;;;;;;1.63;1.57;;;1.80;99.20;0.90;98335.00;;;;5018011;28;20229;-72
2022/04/03 02:55:24;;;;;;;2.70;1.03;;;1.90;98.90;1.00;98326.00;;;;5018090;28;20605;-72
2022/04/03 02:57:52;;;;;;;0.80;0.80;;;1.80;98.80;1.00;98341.00;;;;5034850;28;20217;-72
2022/04/03 03:00:21;;;;;;;1.40;1.30;;;1.90;98.90;1.00;98293.00;;;;5017747;28;20264;-72
2022/04/03 03:02:51;;;;;;;1.20;1.20;;;1.90;98.90;1.10;98348.00;;;;5017684;28;20629;-72
2022/04/03 03:05:17;;;;;;;1.67;1.57;;;1.90;98.60;1.00;98333.00;;;;5034816;28;20579;-72
2022/04/03 03:07:46;;;;;;;1.53;1.43;;;1.90;98.80;1.00;98339.00;;;;5017739;28;20546;-72
2022/04/03 03:10:15;;;;;;;1.10;1.10;;;1.90;98.90;1.00;98340.00;;;;5017337;28;20327;-72
2022/04/03 03:12:42;;;;;;;0.90;0.90;;;1.90;99.00;1.10;98335.00;;;;5017593;28;20555;-72
2022/04/03 03:15:11;;;;;;;1.50;1.40;;;2.00;98.70;1.00;98340.00;;;;5034580;28;20706;-72
2022/04/03 03:17:38;;;;;;;2.00;1.53;;;1.90;98.80;1.10;98333.00;;;;5034665;28;20201;-72
2022/04/03 03:20:07;;;;;;;1.60;1.50;;;1.90;99.10;1.10;98330.00;;;;5017140;28;20247;-72
2022/04/03 03:22:34;;;;;;;1.77;1.67;;;1.90;98.90;1.10;98284.00;;;;5017527;28;20262;-72
2022/04/03 03:25:00;;;;;;;1.77;1.67;;;1.90;98.80;1.00;98340.00;;;;5017282;28;20201;-72
2022/04/03 03:27:28;;;;;;;1.10;1.10;;;1.90;98.50;1.10;98346.00;;;;5017059;28;20217;-73
2022/04/03 03:29:54;;;;;;;1.13;1.13;;;1.90;98.50;1.20;98348.00;;;;5034654;28;20225;-73
2022/04/03 03:32:24;;;;;;;1.10;1.10;;;1.90;98.30;1.00;98336.00;;;;5017000;28;20678;-72
2022/04/03 03:34:51;;;;;;;1.10;1.10;;;1.90;98.00;1.10;98348.00;;;;5034503;28;20208;-72
2022/04/03 03:37:17;;;;;;;1.43;1.33;;;1.90;98.10;1.10;98344.00;;;;5034308;28;20679;-72
2022/04/03 03:39:47;;;;;;;1.27;1.27;;;1.90;96.90;1.10;98343.00;;;;5034350;28;20217;-74
2022/04/03 03:42:13;;;;;;;2.03;1.93;;;1.90;97.40;1.10;98357.00;;;;5015853;28;20211;-71
2022/04/03 03:44:41;;;;;;;1.37;1.37;;;1.90;97.20;1.10;98346.00;;;;5017148;28;20555;-72
2022/04/03 03:47:07;;;;;;;1.50;1.43;;;2.00;97.40;1.00;98327.00;;;;5017232;28;20247;-74
2022/04/03 03:49:34;;;;;;;1.37;1.30;;;1.90;97.30;0.90;98365.00;;;;5016646;28;20236;-72
2022/04/03 03:52:01;;;;;;;1.50;1.40;;;1.80;98.10;1.00;98325.00;;;;5034228;28;20484;-73
2022/04/03 03:54:28;;;;;;;1.63;1.53;;;1.80;97.90;0.90;98343.00;;;;5034372;28;20339;-73
2022/04/03 03:56:54;;;;;;;2.33;2.20;;;1.80;97.30;1.00;98347.00;;;;5034106;28;20295;-72
2022/04/03 03:59:21;;;;;;;1.00;1.00;;;1.90;97.70;1.10;98354.00;;;;5016853;28;20228;-72
2022/04/03 04:01:48;;;;;;;2.03;1.57;;;1.80;97.60;1.00;98355.00;;;;5033969;28;20291;-72
2022/04/03 04:04:15;;;;;;;1.10;1.10;;;1.80;96.90;1.00;98369.00;;;;5033933;28;20620;-72
2022/04/03 04:06:41;;;;;;;1.67;1.43;;;1.90;97.50;1.10;98337.00;;;;5034230;28;20224;-73
2022/04/03 04:09:08;;;;;;;1.10;1.10;;;1.90;97.20;0.90;98359.00;;;;5034155;28;20235;-72
2022/04/03 04:11:34;;;;;;;1.00;1.00;;;1.90;97.00;1.00;98374.00;;;;5033882;28;20655;-72
2022/04/03 04:14:01;;;;;;;1.33;1.33;;;1.90;97.50;1.10;98370.00;;;;5034025;28;20193;-72
2022/04/03 04:16:27;;;;;;;1.43;1.33;;;1.90;97.10;1.10;98364.00;;;;5034153;28;20225;-72
2022/04/03 04:18:58;;;;;;;1.70;1.60;;;1.90;97.20;1.10;98373.00;;;;5033827;28;20231;-72
2022/04/03 04:21:24;;;;;;;1.73;1.63;;;1.90;97.40;1.10;98378.00;;;;5033927;28;20339;-72
2022/04/03 04:23:51;;;;;;;3.23;1.53;;;1.90;97.00;1.10;98378.00;;;;5033756;28;20197;-72
2022/04/03 04:26:18;;;;;;;1.83;1.73;;;1.90;96.70;1.10;98378.00;;;;5033677;28;20298;-72
2022/04/03 04:28:48;;;;;;;1.67;1.60;;;1.90;96.70;1.10;98365.00;;;;5033603;28;20704;-72
2022/04/03 04:31:15;;;;;;;1.10;1.10;;;1.90;96.60;1.10;98364.00;;;;5016270;28;20232;-72
2022/04/03 04:33:41;;;;;;;1.73;1.63;;;1.90;96.20;1.10;98388.00;;;;5016270;28;20233;-72
2022/04/03 04:36:11;;;;;;;0.80;0.80;;;1.90;97.10;1.00;98385.00;;;;5033610;28;20243;-72
2022/04/03 04:38:38;;;;;;;1.67;1.57;;;1.90;96.00;1.00;98380.00;;;;5033472;28;20588;-72
2022/04/03 04:41:04;;;;;;;1.23;1.23;;;1.90;96.30;1.00;98375.00;;;;5033809;28;20275;-73
2022/04/03 04:43:33;;;;;;;1.53;1.43;;;1.90;95.90;1.10;98387.00;;;;5033632;28;20648;-72
2022/04/03 04:46:00;;;;;;;1.10;1.10;;;1.90;95.80;1.00;98379.00;;;;5016283;28;20224;-72
2022/04/03 04:48:27;;;;;;;1.77;1.40;;;1.90;95.80;1.10;98389.00;;;;5033680;28;20251;-72
2022/04/03 04:50:53;;;;;;;1.63;1.53;;;1.90;95.90;1.10;98399.00;;;;5033743;28;20290;-72
2022/04/03 04:53:21;;;;;;;1.90;1.80;;;1.90;95.80;0.90;98392.00;;;;5034135;28;20236;-72
2022/04/03 04:55:47;;;;;;;1.70;1.60;;;1.80;95.80;1.00;98392.00;;;;5037047;28;20263;-72
2022/04/03 04:58:14;;;;;;;1.07;1.07;;;1.80;95.30;1.00;98401.00;;;;5037039;28;20216;-72
2022/04/03 05:00:40;;;;;;;1.23;1.23;;;1.80;95.40;1.00;98398.00;;;;5037037;28;20203;-72
2022/04/03 05:03:07;;;;;;;3.83;1.80;;;1.80;95.40;0.90;98412.00;;;;5020234;28;20562;-72
2022/04/03 05:05:35;;;;;;;1.87;1.77;;;1.80;95.40;0.90;98406.00;;;;5038035;28;20289;-72
2022/04/03 05:08:02;;;;;;;1.30;1.30;;;1.80;95.70;0.90;98400.00;;;;5024813;28;20671;-74
2022/04/03 05:10:32;;;;;;;1.57;1.47;;;1.80;96.00;0.90;98388.00;;;;5037090;28;20224;-73
2022/04/03 05:13:01;;;;;;;1.07;1.07;;;1.80;96.20;1.00;98395.00;;;;5036969;28;20251;-72
2022/04/03 05:15:29;;;;;;;1.43;1.33;;;1.80;96.90;1.00;98409.00;;;;5036842;28;20255;-73
2022/04/03 05:17:56;;;;;;;2.90;1.27;;;1.90;96.90;1.00;98391.00;;;;5036460;28;20197;-72
2022/04/03 05:20:23;;;;;;;1.27;1.27;;;1.90;96.30;1.00;98422.00;;;;5036686;28;20652;-72
2022/04/03 05:22:49;;;;;;;1.27;1.27;;;1.80;96.10;1.00;98422.00;;;;5036565;28;20189;-72
2022/04/03 05:25:16;;;;;;;1.27;1.17;;;1.90;96.10;1.10;98414.00;;;;5036503;28;20228;-72
2022/04/03 05:27:44;;;;;;;1.17;1.17;;;1.90;96.20;1.10;98422.00;;;;5018962;28;20269;-72
2022/04/03 05:30:13;;;;;;;1.90;1.17;;;1.90;95.30;1.00;98403.00;;;;5036306;28;20703;-72
2022/04/03 05:32:40;;;;;;;1.70;1.60;;;1.90;95.50;1.10;98422.00;;;;5019292;28;20263;-72
2022/04/03 05:35:09;;;;;;;1.20;1.20;;;1.90;95.70;1.10;98423.00;;;;5036261;28;20235;-72
2022/04/03 05:37:37;;;;;;;1.20;1.20;;;1.90;95.60;1.10;98430.00;;;;5023104;28;20628;-73
2022/04/03 05:40:11;;;;;;;0.80;0.80;;;1.90;95.70;1.20;98428.00;;;;5039237;28;20292;-72
2022/04/03 05:42:37;;;;;;;1.07;1.07;;;1.90;95.70;1.20;98435.00;;;;5037334;28;20643;-73
2022/04/03 05:45:09;;;;;;;1.27;1.27;;;2.00;95.20;1.20;98429.00;;;;5036420;28;20547;-72
2022/04/03 05:47:37;;;;;;;1.43;1.40;;;2.00;94.80;1.20;98427.00;;;;5018650;28;20203;-72
2022/04/03 05:50:05;;;;;;;1.17;1.17;;;2.00;94.30;1.30;98429.00;;;;5036089;28;20266;-72
2022/04/03 05:52:40;;;;;;;2.23;1.70;;;2.00;94.30;1.20;98434.00;;;;5036001;28;20259;-72
2022/04/03 05:55:09;;;;;;;1.90;1.63;;;2.10;94.60;1.30;98441.00;;;;5035959;28;20216;-72
2022/04/03 05:57:36;;;;;;;0.90;0.90;;;2.10;94.50;1.30;98445.00;;;;5035922;28;20217;-72
2022/04/03 06:00:12;;;;;;;1.37;1.33;;;2.10;94.00;1.40;98435.00;;;;5035944;28;20252;-72
2022/04/03 06:02:49;;;;;;;1.10;1.10;;;2.10;94.30;1.50;98447.00;;;;5018761;28;20713;-72
2022/04/03 06:05:19;;;;;;;1.60;1.50;;;2.20;93.70;1.40;98454.00;;;;5035283;28;20212;-72
2022/04/03 06:07:46;;;;;;;1.10;1.00;;;2.20;92.90;1.50;98460.00;;;;5036032;28;20610;-72
2022/04/03 06:10:15;;;;;;;1.17;1.17;;;2.30;93.10;1.60;98451.00;;;;5018460;28;20232;-72
2022/04/03 06:12:56;;;;;;;1.00;1.00;;;2.30;92.90;1.70;98459.00;;;;5035802;28;20212;-72
2022/04/03 06:15:25;;;;;;;1.40;1.40;;;2.40;93.10;1.80;98459.00;;;;5035725;28;20221;-72
2022/04/03 06:17:55;;;;;;;1.03;1.03;;;2.50;92.50;1.80;98464.00;;;;5035924;28;20648;-72
2022/04/03 06:20:22;;;;;;;1.23;1.23;;;2.50;92.20;1.90;98465.00;;;;5035780;28;20425;-72
2022/04/03 06:22:51;;;;;;;1.47;1.37;;;2.60;92.60;2.00;98422.00;;;;5035740;28;20214;-72
2022/04/03 06:25:18;;;;;;;1.80;1.70;;;2.60;92.00;1.90;98466.00;;;;5035656;28;20209;-72
2022/04/03 06:27:44;;;;;;;1.70;1.60;;;2.70;91.70;1.90;98469.00;;;;5018635;28;20219;-72
2022/04/03 06:30:12;;;;;;;1.07;1.07;;;2.80;90.80;2.00;98477.00;;;;5018346;28;20210;-72
2022/04/03 06:32:39;;;;;;;1.23;1.23;;;2.70;91.80;2.00;98485.00;;;;5018109;28;20225;-72
2022/04/03 06:35:08;;;;;;;1.57;1.47;;;2.80;90.30;2.10;98483.00;;;;5035640;28;20593;-72
2022/04/03 06:37:36;;;;;;;0.87;0.87;;;2.80;89.90;2.10;98486.00;;;;5035430;28;20223;-72
2022/04/03 06:40:04;;;;;;;1.87;1.77;;;2.80;90.80;2.30;98480.00;;;;5035728;28;20263;-73
2022/04/03 06:42:31;;;;;;;1.30;1.30;;;3.00;89.40;2.30;98487.00;;;;5035970;28;20240;-72
2022/04/03 06:45:00;;;;;;;1.00;1.00;;;3.00;88.70;2.30;98482.00;;;;5035749;28;20222;-73
2022/04/03 06:47:26;;;;;;;1.53;1.50;;;3.00;88.40;2.30;98487.00;;;;5018312;28;20231;-72
2022/04/03 06:49:54;;;;;;;1.37;1.37;;;3.00;88.10;2.30;98474.00;;;;5018147;28;20229;-74
2022/04/03 06:52:20;;;;;;;1.50;1.40;;;3.10;88.90;2.40;98482.00;;;;5035451;28;20281;-73
2022/04/03 06:54:47;;;;;;;1.00;1.00;;;3.10;88.40;2.10;98498.00;;;;5035666;28;20739;-73
2022/04/03 06:57:17;;;;;;;1.33;1.33;;;3.00;87.60;2.40;98488.00;;;;5035191;28;20207;-72
2022/04/03 06:59:44;;;;;;;0.90;0.90;;;3.10;87.90;2.50;98491.00;;;;5034978;28;20686;-73
2022/04/03 07:02:11;;;;;;;1.30;1.20;;;3.20;87.60;2.70;98493.00;;;;5035077;28;20197;-73
2022/04/03 07:04:40;;;;;;;0.90;0.90;;;3.30;86.10;2.70;98504.00;;;;5035010;28;20297;-72
2022/04/03 07:07:10;;;;;;;0.80;0.80;;;3.40;85.30;2.70;98502.00;;;;5035030;28;20298;-73
2022/04/03 07:09:39;;;;;;;1.17;1.17;;;3.40;84.40;2.80;98509.00;;;;5034987;28;20220;-72
2022/04/03 07:12:07;;;;;;;1.20;1.20;;;3.40;85.70;2.80;98499.00;;;;5034988;28;20203;-72
2022/04/03 07:14:36;;;;;;;0.93;0.93;;;3.50;85.40;3.00;98508.00;;;;5034859;28;20222;-72
2022/04/03 07:17:02;;;;;;;1.17;1.17;;;3.60;84.90;3.00;98501.00;;;;5034680;28;20666;-72
2022/04/03 07:19:29;;;;;;;0.90;0.90;;;3.70;84.80;3.30;98489.00;;;;5034804;28;20232;-72
2022/04/03 07:21:57;;;;;;;1.80;1.00;;;3.80;83.40;3.40;98507.00;;;;5034663;28;20361;-72
2022/04/03 07:24:25;;;;;;;0.93;0.93;;;4.00;82.70;3.60;98517.00;;;;5034599;28;20230;-72
2022/04/03 07:26:51;;;;;;;1.10;1.10;;;4.10;83.90;3.40;98517.00;;;;5034510;28;20333;-72
2022/04/03 07:29:18;;;;;;;2.03;1.73;;;4.00;81.40;3.50;98509.00;;;;5017183;28;20302;-72
2022/04/03 07:31:44;;;;;;;0.70;0.70;;;4.10;81.30;3.50;98518.00;;;;5034483;28;20603;-73
2022/04/03 07:34:11;;;;;;;0.93;0.93;;;4.10;81.70;3.50;98524.00;;;;5034521;28;20256;-72
2022/04/03 07:36:38;;;;;;;0.80;0.80;;;4.10;81.00;3.50;98534.00;;;;5034476;28;20206;-72
2022/04/03 07:39:05;;;;;;;1.30;1.20;;;4.10;80.20;3.50;98531.00;;;;5034279;28;20559;-72
2022/04/03 07:41:32;;;;;;;0.90;0.90;;;4.10;79.40;3.50;98541.00;;;;5034343;28;20285;-72
2022/04/03 07:43:58;;;;;;;1.00;1.00;;;4.20;79.50;3.40;98543.00;;;;5034205;28;20246;-72
2022/04/03 07:46:25;;;;;;;1.30;1.23;;;4.10;80.20;3.50;98540.00;;;;5034606;28;20302;-72
2022/04/03 07:48:52;;;;;;;1.00;1.00;;;4.20;79.60;3.20;98538.00;;;;5034295;28;20194;-73
2022/04/03 07:51:21;;;;;;;1.13;1.13;;;4.00;76.30;3.20;98549.00;;;;5017124;28;20532;-72
2022/04/03 07:53:48;;;;;;;1.67;1.57;;;4.00;79.30;3.50;98556.00;;;;5034223;28;20211;-72
2022/04/03 07:56:14;;;;;;;1.07;0.97;;;4.10;79.70;3.80;98551.00;;;;5016729;28;20552;-73
2022/04/03 07:58:42;;;;;;;0.87;0.87;;;4.30;79.60;3.80;98539.00;;;;5033971;28;20219;-72
2022/04/03 08:01:08;;;;;;;0.80;0.80;;;4.40;78.70;3.90;98559.00;;;;5016772;28;20234;-72
2022/04/03 08:03:35;;;;;;;1.43;1.33;;;4.50;78.60;4.00;98557.00;;;;5034096;28;20627;-72
2022/04/03 08:06:01;;;;;;;0.90;0.90;;;4.60;78.50;4.10;98564.00;;;;5034152;28;20222;-73
2022/04/03 08:08:28;;;;;;;0.90;0.90;;;4.70;77.50;4.20;98565.00;;;;5016548;28;20195;-73
2022/04/03 08:10:54;;;;;;;0.77;0.77;;;4.80;77.10;4.40;98567.00;;;;5034123;28;20228;-73
2022/04/03 08:13:21;;;;;;;1.10;1.10;;;4.90;75.70;4.40;98569.00;;;;5034033;28;20729;-74
2022/04/03 08:15:48;;;;;;;0.87;0.87;;;5.00;73.90;4.10;98562.00;;;;5034053;28;20195;-74
2022/04/03 08:18:19;;;;;;;1.33;1.23;;;4.80;72.40;4.20;98550.00;;;;5016502;28;20255;-73
2022/04/03 08:20:46;;;;;;;0.80;0.80;;;4.90;75.30;4.40;98572.00;;;;5033920;28;20639;-72
2022/04/03 08:23:12;;;;;;;1.63;1.53;;;4.90;71.90;4.20;98573.00;;;;5016339;28;20210;-72
2022/04/03 08:25:41;;;;;;;1.37;1.27;;;4.80;68.70;4.50;98576.00;;;;5033742;28;20231;-73
2022/04/03 08:28:08;;;;;;;1.17;1.17;;;4.90;69.80;4.50;98577.00;;;;5033290;28;20215;-72
2022/04/03 08:30:37;;;;;;;0.90;0.90;;;5.00;68.90;4.70;98578.00;;;;5033705;28;20192;-73
2022/04/03 08:33:06;;;;;;;0.93;0.93;;;5.20;68.70;4.70;98585.00;;;;5033742;28;20215;-73
2022/04/03 08:35:38;;;;;;;1.37;1.27;;;5.20;67.50;4.80;98587.00;;;;5033662;28;20234;-72
2022/04/03 08:38:05;;;;;;;0.90;0.90;;;5.30;67.30;4.80;98586.00;;;;5033557;28;20642;-72
2022/04/03 08:40:36;;;;;;;1.33;1.33;;;5.40;64.00;4.90;98585.00;;;;5033774;28;20236;-72
2022/04/03 08:43:04;;;;;;;0.97;0.97;;;5.50;61.80;5.20;98582.00;;;;5033563;28;20729;-72
2022/04/03 08:45:31;;;;;;;0.70;0.70;;;5.60;62.20;5.50;98577.00;;;;5033635;28;20191;-72
2022/04/03 08:48:00;;;;;;;1.00;1.00;;;5.80;62.50;5.60;98586.00;;;;5033660;28;20353;-72
2022/04/03 08:50:29;;;;;;;4.37;1.60;;;6.00;61.40;5.90;98582.00;;;;5015776;28;20631;-72
2022/04/03 08:52:58;;;;;;;0.73;0.73;;;6.30;58.30;6.00;98584.00;;;;5033556;28;20345;-72
2022/04/03 08:55:26;;;;;;;0.90;0.90;;;6.40;58.60;6.10;98588.00;;;;5033435;28;20224;-73
2022/04/03 08:57:53;;;;;;;0.70;0.70;;;6.50;58.10;6.00;98548.00;;;;5033211;28;20220;-73
2022/04/03 09:00:20;;;;;;;0.73;0.73;;;6.60;56.70;6.20;98576.00;;;;5033384;28;20251;-73
2022/04/03 09:02:47;;;;;;;1.10;1.10;;;6.70;56.50;5.90;98585.00;;;;5033459;28;20220;-73
2022/04/03 09:05:15;;;;;;;0.70;0.70;;;6.60;54.70;6.20;98584.00;;;;5033515;28;20224;-73
2022/04/03 09:07:43;;;;;;;1.20;1.20;;;6.70;54.70;6.20;98575.00;;;;5033479;28;20279;-72
2022/04/03 09:10:14;;;;;;;1.70;1.33;;;6.70;53.70;6.00;98592.00;;;;5033726;28;20216;-73
2022/04/03 09:12:45;;;;;;;0.73;0.73;;;6.60;54.10;5.80;98593.00;;;;5015949;28;20260;-73
2022/04/03 09:15:14;;;;;;;0.80;0.80;;;6.50;54.10;5.90;98591.00;;;;5033229;28;20273;-73
2022/04/03 09:17:44;;;;;;;0.60;0.60;;;6.40;54.10;5.70;98588.00;;;;5033224;28;20206;-73
2022/04/03 09:20:14;;;;;;;0.80;0.80;;;6.40;51.90;5.80;98600.00;;;;5033411;28;20221;-73
2022/04/03 09:22:46;;;;;;;0.80;0.80;;;6.40;52.90;5.90;98594.00;;;;5033756;28;20197;-73
2022/04/03 09:25:16;;;;;;;1.23;1.23;;;6.40;52.10;6.10;98590.00;;;;5034394;28;20228;-73
2022/04/03 09:27:49;;;;;;;1.00;1.00;;;6.50;53.10;6.30;98589.00;;;;5040971;28;20279;-74
2022/04/03 09:30:17;;;;;;;1.43;0.80;;;6.70;52.80;6.30;98599.00;;;;5038713;28;20224;-74
2022/04/03 09:32:48;;;;;;;1.27;1.27;;;6.80;53.70;6.40;98592.00;;;;5034254;28;20245;-73
2022/04/03 09:35:15;;;;;;;0.60;0.60;;;6.90;52.60;5.80;98578.00;;;;5033033;28;20217;-73
2022/04/03 09:38:11;;;;;;;0.77;0.77;;;6.60;49.70;5.70;98597.00;;;;5015526;28;20315;-72
2022/04/03 09:40:43;;;;;;;0.73;0.73;;;6.40;51.10;5.40;98582.00;;;;5033939;28;20220;-76
2022/04/03 09:43:23;;;;;;;0.83;0.83;;;6.20;52.10;5.30;98602.00;;;;5036220;28;20307;-73
2022/04/03 09:45:52;;;;;;;0.90;0.90;;;6.10;49.50;5.10;98600.00;;;;5036217;28;20212;-72
2022/04/03 09:48:27;;;;;;;0.60;0.60;;;5.90;51.10;5.10;98605.00;;;;5036159;28;20228;-73
2022/04/03 09:51:03;;;;;;;0.80;0.80;;;5.90;52.30;5.00;98602.00;;;;5035712;28;20341;-73
2022/04/03 09:53:42;;;;;;;1.10;1.10;;;5.70;52.10;5.10;98598.00;;;;5018573;28;20224;-73
2022/04/03 09:56:10;;;;;;;26.40;1.03;;;5.70;51.60;5.10;98608.00;;;;5036259;28;20200;-73
2022/04/03 09:58:57;;;;;;;0.63;0.63;;;5.70;52.60;5.00;98618.00;;;;5038399;28;20592;-74
2022/04/03 10:01:30;;;;;;;1.07;1.07;;;5.60;51.00;4.80;98604.00;;;;5019294;28;20205;-73
2022/04/03 10:03:58;;;;;;;0.70;0.70;;;5.60;50.80;5.00;98612.00;;;;5036393;28;20283;-73
2022/04/03 10:06:25;;;;;;;1.40;1.17;;;5.60;49.70;4.90;98606.00;;;;5035988;28;20207;-73
2022/04/03 10:08:55;;;;;;;0.90;0.90;;;5.60;48.80;5.00;98616.00;;;;5035788;28;20228;-73
2022/04/03 10:11:24;;;;;;;0.80;0.80;;;5.60;51.10;4.80;98617.00;;;;5035801;28;20315;-73
2022/04/03 10:13:52;;;;;;;0.70;0.70;;;5.60;52.10;5.00;98608.00;;;;5035751;28;20291;-73
2022/04/03 10:16:20;;;;;;;0.63;0.63;;;5.60;52.20;4.90;98605.00;;;;5035620;28;20536;-73
2022/04/03 10:18:48;;;;;;;1.10;1.10;;;5.60;53.30;5.00;98608.00;;;;5018563;28;20315;-73
2022/04/03 10:21:21;;;;;;;0.80;0.80;;;5.50;54.20;5.00;98603.00;;;;5035579;28;20231;-73
2022/04/03 10:23:52;;;;;;;0.60;0.60;;;5.60;52.30;4.90;98604.00;;;;5035733;28;20292;-73
2022/04/03 10:26:21;;;;;;;0.60;0.60;;;5.50;49.90;5.10;98604.00;;;;5035477;28;20204;-73
2022/04/03 10:28:54;;;;;;;0.70;0.70;;;5.60;51.50;5.30;98600.00;;;;5035685;28;20257;-75
2022/04/03 10:31:21;;;;;;;0.70;0.70;;;5.80;50.80;5.40;98589.00;;;;5018535;28;20336;-73
2022/04/03 10:33:50;;;;;;;0.60;0.60;;;5.90;48.60;5.60;98595.00;;;;5018221;28;20271;-74
2022/04/03 10:36:25;;;;;;;0.70;0.70;;;6.10;49.80;6.10;98597.00;;;;5035319;28;20651;-74
2022/04/03 10:39:05;;;;;;;0.77;0.77;;;6.40;48.10;6.30;98594.00;;;;5017749;28;20684;-74
2022/04/03 10:41:39;;;;;;;0.60;0.60;;;6.60;48.40;6.50;98593.00;;;;5035420;28;20284;-74
2022/04/03 10:44:18;;;;;;;1.57;1.47;;;6.80;46.80;6.50;98594.00;;;;5035495;28;20228;-74
2022/04/03 10:47:21;;;;;;;0.70;0.70;;;7.00;45.40;6.80;98594.00;;;;5017828;28;20362;-75
2022/04/03 10:49:59;;;;;;;0.90;0.90;;;7.20;44.90;7.00;98594.00;;;;5005447;28;20220;-75
2022/04/03 10:52:57;;;;;;;0.73;0.73;;;7.40;46.40;6.90;98596.00;;;;5034962;28;20283;-73
2022/04/03 10:55:35;;;;;;;0.77;0.77;;;7.50;45.30;6.80;98599.00;;;;5035087;28;20244;-73
2022/04/03 10:58:16;;;;;;;0.70;0.70;;;7.40;45.70;6.60;98594.00;;;;5017871;28;20516;-74
2022/04/03 11:00:43;;;;;;;1.60;0.97;;;7.30;45.70;6.30;98600.00;;;;5035101;28;20278;-73
2022/04/03 11:03:35;;;;;;;0.70;0.70;;;7.00;43.00;6.10;98601.00;;;;5035019;28;20235;-73
2022/04/03 11:06:23;;;;;;;0.83;0.83;;;6.80;42.50;5.80;98603.00;;;;5035198;28;20312;-73
2022/04/03 11:09:15;;;;;;;0.60;0.60;;;6.50;41.70;5.70;98599.00;;;;5017653;28;20201;-73
2022/04/03 11:11:54;;;;;;;0.70;0.70;;;6.40;43.00;5.80;98599.00;;;;5035199;28;20279;-74
2022/04/03 11:14:52;;;;;;;0.93;0.93;;;6.40;46.30;5.40;98594.00;;;;5035813;28;20208;-75
2022/04/03 11:17:40;;;;;;;0.90;0.90;;;6.10;47.20;5.40;98603.00;;;;5018847;28;20608;-74